Time;durP1;ratioP1;P1;durP2;ratioP2;P2;SDS_P1;SDS_P2;PMS_P1;PMS_P2;Temp;Humidity;BMP_temperature;BMP_pressure;BME280_temperature;BME280_humidity;BME280_pressure;Samples;Min_cycle;Max_cycle;Signal;HPM_P1;HPM_P2
2023/12/25 00:01:47;;;;;;;;;;;11.00;99.90;;;;;;4952723;28;19922;-57
2023/12/25 00:04:13;;;;;;;;;;;11.00;99.90;;;;;;4946542;28;19929;-58
2023/12/25 00:06:38;;;;;;;;;;;11.00;99.90;;;;;;4965602;28;20604;-58
2023/12/25 00:09:04;;;;;;;;;;;11.00;99.90;;;;;;4938340;28;19930;-58
2023/12/25 00:11:29;;;;;;;;;;;11.00;99.90;;;;;;4955624;28;19969;-58
2023/12/25 00:13:55;;;;;;;;;;;11.00;99.90;;;;;;4958799;28;19973;-57
2023/12/25 00:16:21;;;;;;;;;;;11.00;99.90;;;;;;4959085;28;20415;-58
2023/12/25 00:18:47;;;;;;;;;;;11.00;99.90;;;;;;4957759;28;20478;-58
2023/12/25 00:21:12;;;;;;;;;;;11.00;99.90;;;;;;4958734;28;19921;-58
2023/12/25 00:23:38;;;;;;;;;;;11.00;99.90;;;;;;4960544;28;19925;-58
2023/12/25 00:26:03;;;;;;;;;;;11.00;99.90;;;;;;4957775;28;19970;-59
2023/12/25 00:28:29;;;;;;;;;;;11.00;99.90;;;;;;4961190;28;19926;-58
2023/12/25 00:30:54;;;;;;;;;;;11.00;99.90;;;;;;4941275;28;19922;-57
2023/12/25 00:33:20;;;;;;;;;;;11.00;99.90;;;;;;4960565;28;19972;-59
2023/12/25 00:35:45;;;;;;;;;;;11.00;99.90;;;;;;4957607;28;19928;-57
2023/12/25 00:38:11;;;;;;;;;;;11.00;99.90;;;;;;4959048;28;19921;-58
2023/12/25 00:40:37;;;;;;;;;;;11.00;99.90;;;;;;4956383;28;19926;-56
2023/12/25 00:43:02;;;;;;;;;;;11.00;99.90;;;;;;4922728;28;20403;-57
2023/12/25 00:45:28;;;;;;;;;;;11.00;99.90;;;;;;4961652;28;19973;-58
2023/12/25 00:47:53;;;;;;;;;;;11.00;99.90;;;;;;4956065;28;19929;-58
2023/12/25 00:50:19;;;;;;;;;;;11.00;99.90;;;;;;4964993;28;19925;-57
2023/12/25 00:52:45;;;;;;;;;;;11.00;99.90;;;;;;4960915;28;19922;-58
2023/12/25 00:55:10;;;;;;;;;;;11.00;99.90;;;;;;4955311;28;20008;-58
2023/12/25 00:57:36;;;;;;;;;;;11.00;99.90;;;;;;4951363;28;20389;-58
2023/12/25 01:02:27;;;;;;;;;;;10.90;99.90;;;;;;5002248;23;19929;-56
2023/12/25 01:04:52;;;;;;;;;;;10.90;99.90;;;;;;4970536;28;19941;-58
2023/12/25 01:07:18;;;;;;;;;;;10.90;99.90;;;;;;4968877;28;19968;-57
2023/12/25 01:09:43;;;;;;;;;;;10.90;99.90;;;;;;4948967;28;20082;-57
2023/12/25 01:12:09;;;;;;;;;;;10.90;99.90;;;;;;4969679;28;19980;-59
2023/12/25 01:14:35;;;;;;;;;;;10.90;99.90;;;;;;4972503;28;19926;-58
2023/12/25 01:17:01;;;;;;;;;;;10.80;99.90;;;;;;4957837;28;19925;-57
2023/12/25 01:19:26;;;;;;;;;;;10.90;99.90;;;;;;4955470;28;19929;-59
2023/12/25 01:21:52;;;;;;;;;;;10.80;99.90;;;;;;4953404;28;20280;-58
2023/12/25 01:24:17;;;;;;;;;;;10.80;99.90;;;;;;4963100;28;19932;-58
2023/12/25 01:26:43;;;;;;;;;;;10.80;99.90;;;;;;4955693;28;19963;-58
2023/12/25 01:29:08;;;;;;;;;;;10.80;99.90;;;;;;4925502;28;19932;-58
2023/12/25 01:31:35;;;;;;;;;;;10.80;99.90;;;;;;4936293;28;19975;-58
2023/12/25 01:34:01;;;;;;;;;;;10.70;99.90;;;;;;4970549;28;20024;-59
2023/12/25 01:36:27;;;;;;;;;;;10.70;99.90;;;;;;4959087;28;20364;-59
2023/12/25 01:38:53;;;;;;;;;;;10.70;99.90;;;;;;4941598;28;20004;-59
2023/12/25 01:41:19;;;;;;;;;;;10.60;99.90;;;;;;4962456;28;20012;-59
2023/12/25 01:43:45;;;;;;;;;;;10.70;99.90;;;;;;4959660;28;19968;-58
2023/12/25 01:46:14;;;;;;;;;;;10.60;99.90;;;;;;4971570;28;20011;-58
2023/12/25 01:48:41;;;;;;;;;;;10.60;99.90;;;;;;4979106;28;19933;-56
2023/12/25 01:51:07;;;;;;;;;;;10.60;99.90;;;;;;4970977;28;20166;-59
2023/12/25 01:53:33;;;;;;;;;;;10.60;99.90;;;;;;4969882;28;20016;-58
2023/12/25 01:55:59;;;;;;;;;;;10.50;99.90;;;;;;4970501;28;19921;-58
2023/12/25 01:58:24;;;;;;;;;;;10.50;99.90;;;;;;4968052;28;20376;-58
2023/12/25 02:00:50;;;;;;;;;;;10.50;99.90;;;;;;4953668;28;20287;-58
2023/12/25 02:03:16;;;;;;;;;;;10.40;99.90;;;;;;4946168;28;19922;-56
2023/12/25 02:05:42;;;;;;;;;;;10.40;99.90;;;;;;4927831;28;20404;-58
2023/12/25 02:08:10;;;;;;;;;;;10.40;99.90;;;;;;4943256;28;19965;-58
2023/12/25 02:10:36;;;;;;;;;;;10.50;99.90;;;;;;4925884;28;19926;-57
2023/12/25 02:13:05;;;;;;;;;;;10.40;99.90;;;;;;4941959;28;19929;-58
2023/12/25 02:15:31;;;;;;;;;;;10.40;99.90;;;;;;4934322;28;19922;-57
2023/12/25 02:17:57;;;;;;;;;;;10.40;99.90;;;;;;4933630;28;19928;-58
2023/12/25 02:20:23;;;;;;;;;;;10.40;99.90;;;;;;4941994;28;20861;-58
2023/12/25 02:22:49;;;;;;;;;;;10.40;99.90;;;;;;4943109;28;19973;-57
2023/12/25 02:25:28;;;;;;;;;;;10.30;99.90;;;;;;4942561;28;19929;-58
2023/12/25 02:27:53;;;;;;;;;;;10.30;99.90;;;;;;4940916;28;19922;-58
2023/12/25 02:30:19;;;;;;;;;;;10.30;99.90;;;;;;4932729;28;19932;-58
2023/12/25 02:32:45;;;;;;;;;;;10.30;99.90;;;;;;4930851;28;20025;-58
2023/12/25 02:35:12;;;;;;;;;;;10.30;99.90;;;;;;4944670;28;19926;-57
2023/12/25 02:37:38;;;;;;;;;;;10.30;99.90;;;;;;4930507;28;19977;-57
2023/12/25 02:40:04;;;;;;;;;;;10.30;99.90;;;;;;4948093;28;19929;-58
2023/12/25 02:42:30;;;;;;;;;;;10.30;99.90;;;;;;4934449;28;20672;-55
2023/12/25 02:44:55;;;;;;;;;;;10.30;99.90;;;;;;4947913;28;19933;-58
2023/12/25 02:47:21;;;;;;;;;;;10.30;99.90;;;;;;4932830;28;19994;-57
2023/12/25 02:49:46;;;;;;;;;;;10.30;99.90;;;;;;4947153;28;20012;-58
2023/12/25 02:52:12;;;;;;;;;;;10.30;99.90;;;;;;4947520;28;20368;-57
2023/12/25 02:54:37;;;;;;;;;;;10.30;99.90;;;;;;4947663;28;19925;-58
2023/12/25 02:57:03;;;;;;;;;;;10.30;99.90;;;;;;4936152;28;20121;-58
2023/12/25 02:59:29;;;;;;;;;;;10.30;99.90;;;;;;4938392;28;19933;-57
2023/12/25 03:01:54;;;;;;;;;;;10.20;99.90;;;;;;4922015;28;19926;-58
2023/12/25 03:04:20;;;;;;;;;;;10.20;99.90;;;;;;4943264;28;19918;-57
2023/12/25 03:06:46;;;;;;;;;;;10.30;99.90;;;;;;4950154;28;19978;-58
2023/12/25 03:09:11;;;;;;;;;;;10.30;99.90;;;;;;4943566;28;20001;-57
2023/12/25 03:11:37;;;;;;;;;;;10.20;99.90;;;;;;4926767;28;20448;-57
2023/12/25 03:14:03;;;;;;;;;;;10.30;99.90;;;;;;4940554;28;19926;-58
2023/12/25 03:16:29;;;;;;;;;;;10.30;99.90;;;;;;4929477;28;20020;-58
2023/12/25 03:18:54;;;;;;;;;;;10.30;99.90;;;;;;4930060;28;20470;-58
2023/12/25 03:21:21;;;;;;;;;;;10.30;99.90;;;;;;4929203;28;19973;-58
2023/12/25 03:23:47;;;;;;;;;;;10.30;99.90;;;;;;4943245;28;20034;-58
2023/12/25 03:26:12;;;;;;;;;;;10.30;99.90;;;;;;4931517;28;20009;-57
2023/12/25 03:28:38;;;;;;;;;;;10.30;99.90;;;;;;4946801;28;20353;-57
2023/12/25 03:31:04;;;;;;;;;;;10.30;99.90;;;;;;4934280;28;20411;-58
2023/12/25 03:33:29;;;;;;;;;;;10.30;99.90;;;;;;4935214;28;19981;-58
2023/12/25 03:35:55;;;;;;;;;;;10.30;99.90;;;;;;4934589;28;19929;-58
2023/12/25 03:38:20;;;;;;;;;;;10.30;99.90;;;;;;4945423;28;19949;-57
2023/12/25 03:40:46;;;;;;;;;;;10.20;99.90;;;;;;4945689;28;19934;-57
2023/12/25 03:43:12;;;;;;;;;;;10.20;99.90;;;;;;4928394;28;20320;-56
2023/12/25 03:45:37;;;;;;;;;;;10.20;99.90;;;;;;4928393;28;20531;-57
2023/12/25 03:48:03;;;;;;;;;;;10.20;99.90;;;;;;4948170;28;19925;-58
2023/12/25 03:50:29;;;;;;;;;;;10.20;99.90;;;;;;4947102;28;19972;-56
2023/12/25 03:52:54;;;;;;;;;;;10.20;99.90;;;;;;4948222;28;19921;-58
2023/12/25 03:55:20;;;;;;;;;;;10.20;99.90;;;;;;4947893;28;19921;-58
2023/12/25 03:57:45;;;;;;;;;;;10.20;99.90;;;;;;4931004;28;19927;-56
2023/12/25 04:00:11;;;;;;;;;;;10.20;99.90;;;;;;4926748;28;19922;-59
2023/12/25 04:02:38;;;;;;;;;;;10.20;99.90;;;;;;4945626;28;19973;-57
2023/12/25 04:05:04;;;;;;;;;;;10.10;99.90;;;;;;4944220;28;20587;-58
2023/12/25 04:07:29;;;;;;;;;;;10.10;99.90;;;;;;4946921;28;19921;-58
2023/12/25 04:09:55;;;;;;;;;;;10.10;99.90;;;;;;4946567;28;19933;-58
2023/12/25 04:12:20;;;;;;;;;;;10.20;99.90;;;;;;4943491;28;20030;-58
2023/12/25 04:14:46;;;;;;;;;;;10.20;99.90;;;;;;4941191;28;19973;-58
2023/12/25 04:17:12;;;;;;;;;;;10.20;99.90;;;;;;4941441;28;20365;-58
2023/12/25 04:19:38;;;;;;;;;;;10.20;99.90;;;;;;4944947;28;19926;-58
2023/12/25 04:22:03;;;;;;;;;;;10.20;99.90;;;;;;4945593;28;20329;-58
2023/12/25 04:24:29;;;;;;;;;;;10.20;99.90;;;;;;4942311;28;20589;-58
2023/12/25 04:26:54;;;;;;;;;;;10.20;99.90;;;;;;4927063;28;19949;-57
2023/12/25 04:29:20;;;;;;;;;;;10.20;99.90;;;;;;4945323;28;20329;-59
2023/12/25 04:31:46;;;;;;;;;;;10.20;99.90;;;;;;4950156;28;19994;-57
2023/12/25 04:34:11;;;;;;;;;;;10.20;99.90;;;;;;4952616;28;20861;-57
2023/12/25 04:36:37;;;;;;;;;;;10.20;99.90;;;;;;4951793;28;19926;-58
2023/12/25 04:39:02;;;;;;;;;;;10.20;99.90;;;;;;4929968;28;19922;-57
2023/12/25 04:41:28;;;;;;;;;;;10.20;99.90;;;;;;4947710;28;19917;-58
2023/12/25 04:43:54;;;;;;;;;;;10.10;99.90;;;;;;4948003;28;19948;-57
2023/12/25 04:46:20;;;;;;;;;;;10.10;99.90;;;;;;4945866;28;19930;-58
2023/12/25 04:48:46;;;;;;;;;;;10.10;99.90;;;;;;4949776;28;19977;-58
2023/12/25 04:51:11;;;;;;;;;;;10.10;99.90;;;;;;4948447;28;20021;-58
2023/12/25 04:53:37;;;;;;;;;;;10.10;99.90;;;;;;4946539;28;19926;-58
2023/12/25 04:56:03;;;;;;;;;;;10.10;99.90;;;;;;4941094;28;19961;-58
2023/12/25 04:58:28;;;;;;;;;;;10.10;99.90;;;;;;4945098;28;19917;-57
2023/12/25 05:00:54;;;;;;;;;;;10.10;99.90;;;;;;4948813;28;20333;-57
2023/12/25 05:03:21;;;;;;;;;;;10.10;99.90;;;;;;4944939;28;20016;-58
2023/12/25 05:05:47;;;;;;;;;;;10.10;99.90;;;;;;4948738;28;20344;-57
2023/12/25 05:08:13;;;;;;;;;;;10.10;99.90;;;;;;4942304;28;20009;-58
2023/12/25 05:10:38;;;;;;;;;;;10.10;99.90;;;;;;4941084;28;19928;-58
2023/12/25 05:13:04;;;;;;;;;;;10.00;99.90;;;;;;4944410;28;19921;-57
2023/12/25 05:15:29;;;;;;;;;;;10.00;99.90;;;;;;4930273;28;19929;-58
2023/12/25 05:17:55;;;;;;;;;;;10.00;99.90;;;;;;4943749;28;20621;-58
2023/12/25 05:20:21;;;;;;;;;;;10.00;99.90;;;;;;4946280;28;19926;-58
2023/12/25 05:22:46;;;;;;;;;;;10.00;99.90;;;;;;4944303;28;19937;-58
2023/12/25 05:25:12;;;;;;;;;;;10.00;99.90;;;;;;4942744;28;19926;-58
2023/12/25 05:27:37;;;;;;;;;;;10.00;99.90;;;;;;4947393;28;19977;-58
2023/12/25 05:30:03;;;;;;;;;;;9.90;99.90;;;;;;4944404;28;20530;-56
2023/12/25 05:32:30;;;;;;;;;;;10.00;99.90;;;;;;4930630;28;19961;-57
2023/12/25 05:34:56;;;;;;;;;;;9.90;99.90;;;;;;4927086;28;20480;-58
2023/12/25 05:37:22;;;;;;;;;;;9.90;99.90;;;;;;4925634;28;20791;-57
2023/12/25 05:39:47;;;;;;;;;;;9.90;99.90;;;;;;4927221;28;20053;-58
2023/12/25 05:42:13;;;;;;;;;;;9.90;99.90;;;;;;4942321;28;19976;-58
2023/12/25 05:44:39;;;;;;;;;;;9.90;99.90;;;;;;4947094;28;20385;-57
2023/12/25 05:47:04;;;;;;;;;;;9.90;99.90;;;;;;4947228;28;20452;-58
2023/12/25 05:49:30;;;;;;;;;;;9.90;99.90;;;;;;4946361;28;19930;-55
2023/12/25 05:51:56;;;;;;;;;;;9.90;99.90;;;;;;4947265;28;19973;-58
2023/12/25 05:54:21;;;;;;;;;;;9.90;99.90;;;;;;4946181;28;19922;-58
2023/12/25 05:56:47;;;;;;;;;;;9.80;99.90;;;;;;4943279;28;19926;-58
2023/12/25 05:59:12;;;;;;;;;;;9.80;99.90;;;;;;4942613;28;20046;-57
2023/12/25 06:01:38;;;;;;;;;;;9.80;99.90;;;;;;4946262;28;19937;-58
2023/12/25 06:04:04;;;;;;;;;;;9.80;99.90;;;;;;4947145;28;19925;-58
2023/12/25 06:06:29;;;;;;;;;;;9.80;99.90;;;;;;4941412;28;19922;-58
2023/12/25 06:08:55;;;;;;;;;;;9.70;99.90;;;;;;4942928;28;19996;-57
2023/12/25 06:11:21;;;;;;;;;;;9.70;99.90;;;;;;4948111;28;19967;-58
2023/12/25 06:13:46;;;;;;;;;;;9.70;99.90;;;;;;4948768;28;20582;-58
2023/12/25 06:16:12;;;;;;;;;;;9.60;99.90;;;;;;4951015;28;19926;-58
2023/12/25 06:18:38;;;;;;;;;;;9.60;99.90;;;;;;4948774;28;21145;-58
2023/12/25 06:21:03;;;;;;;;;;;9.60;99.90;;;;;;4944818;28;20024;-58
2023/12/25 06:23:29;;;;;;;;;;;9.60;99.90;;;;;;4950100;28;20644;-58
2023/12/25 06:25:55;;;;;;;;;;;9.50;99.90;;;;;;4947635;28;20517;-57
2023/12/25 06:28:20;;;;;;;;;;;9.50;99.90;;;;;;4932827;28;19928;-57
2023/12/25 06:30:46;;;;;;;;;;;9.50;99.90;;;;;;4949311;28;19929;-57
2023/12/25 06:33:11;;;;;;;;;;;9.50;99.90;;;;;;4946769;28;20074;-58
2023/12/25 06:35:37;;;;;;;;;;;9.50;99.90;;;;;;4949713;28;20315;-58
2023/12/25 06:38:03;;;;;;;;;;;9.50;99.90;;;;;;4949766;28;19918;-57
2023/12/25 06:40:28;;;;;;;;;;;9.40;99.90;;;;;;4950221;28;19922;-58
2023/12/25 06:42:54;;;;;;;;;;;9.40;99.90;;;;;;4949411;28;19961;-58
2023/12/25 06:45:19;;;;;;;;;;;9.40;99.90;;;;;;4947425;28;19926;-58
2023/12/25 06:47:45;;;;;;;;;;;9.40;99.90;;;;;;4946423;28;19918;-58
2023/12/25 06:50:11;;;;;;;;;;;9.40;99.90;;;;;;4948707;28;19926;-59
2023/12/25 06:52:40;;;;;;;;;;;9.40;99.90;;;;;;4931043;28;19929;-57
2023/12/25 06:55:06;;;;;;;;;;;9.40;99.90;;;;;;4953462;28;19933;-57
2023/12/25 06:57:32;;;;;;;;;;;9.40;99.90;;;;;;4949735;28;19922;-57
2023/12/25 06:59:57;;;;;;;;;;;9.40;99.90;;;;;;4945149;28;20345;-57
2023/12/25 07:02:23;;;;;;;;;;;9.50;99.90;;;;;;4945484;28;19925;-58
2023/12/25 07:04:49;;;;;;;;;;;9.50;99.90;;;;;;4949477;28;19929;-58
2023/12/25 07:07:14;;;;;;;;;;;9.50;99.90;;;;;;4946439;28;19957;-58
2023/12/25 07:09:42;;;;;;;;;;;9.50;99.90;;;;;;4930828;28;19926;-56
2023/12/25 07:12:08;;;;;;;;;;;9.50;99.90;;;;;;4939795;28;20744;-58
2023/12/25 07:14:33;;;;;;;;;;;9.50;99.90;;;;;;4946148;28;19926;-58
2023/12/25 07:17:00;;;;;;;;;;;9.50;99.90;;;;;;4941606;28;19926;-58
2023/12/25 07:19:25;;;;;;;;;;;9.50;99.90;;;;;;4945993;28;20522;-58
2023/12/25 07:21:51;;;;;;;;;;;9.50;99.90;;;;;;4946217;28;20164;-57
2023/12/25 07:24:16;;;;;;;;;;;9.50;99.90;;;;;;4943196;28;19980;-58
2023/12/25 07:26:42;;;;;;;;;;;9.50;99.90;;;;;;4907498;28;19926;-57
2023/12/25 07:29:08;;;;;;;;;;;9.50;99.90;;;;;;4914305;28;19926;-59
2023/12/25 07:31:34;;;;;;;;;;;9.50;99.90;;;;;;4929310;28;19970;-58
2023/12/25 07:34:00;;;;;;;;;;;9.50;99.90;;;;;;4930491;28;19965;-58
2023/12/25 07:36:26;;;;;;;;;;;9.50;99.90;;;;;;4951223;28;19922;-58
2023/12/25 07:38:51;;;;;;;;;;;9.50;99.90;;;;;;4945685;28;19952;-58
2023/12/25 07:41:17;;;;;;;;;;;9.40;99.90;;;;;;4951082;28;20831;-58
2023/12/25 07:43:43;;;;;;;;;;;9.50;99.90;;;;;;4951062;28;19921;-58
2023/12/25 07:46:08;;;;;;;;;;;9.50;99.90;;;;;;4932235;28;20021;-57
2023/12/25 07:48:34;;;;;;;;;;;9.50;99.90;;;;;;4914432;28;19926;-58
2023/12/25 07:51:00;;;;;;;;;;;9.50;99.90;;;;;;4946746;28;19997;-57
2023/12/25 07:53:26;;;;;;;;;;;9.50;99.90;;;;;;4945035;28;20453;-58
2023/12/25 07:55:51;;;;;;;;;;;9.50;99.90;;;;;;4932418;28;19918;-57
2023/12/25 07:58:17;;;;;;;;;;;9.50;99.90;;;;;;4950871;28;19925;-58
2023/12/25 08:00:43;;;;;;;;;;;9.50;99.90;;;;;;4928702;28;19965;-58
2023/12/25 08:03:10;;;;;;;;;;;9.40;99.90;;;;;;4947504;28;19926;-58
2023/12/25 08:05:36;;;;;;;;;;;9.40;99.90;;;;;;4952744;28;20265;-57
2023/12/25 08:08:01;;;;;;;;;;;9.30;99.90;;;;;;4952290;28;20038;-57
2023/12/25 08:10:28;;;;;;;;;;;9.20;99.90;;;;;;4935735;28;20060;-58
2023/12/25 08:12:53;;;;;;;;;;;9.20;99.90;;;;;;4943698;28;20017;-56
2023/12/25 08:15:19;;;;;;;;;;;9.10;99.90;;;;;;4931367;28;19926;-57
2023/12/25 08:17:45;;;;;;;;;;;9.10;99.90;;;;;;4944778;28;19918;-57
2023/12/25 08:20:10;;;;;;;;;;;9.10;99.90;;;;;;4950439;28;19926;-58
2023/12/25 08:22:36;;;;;;;;;;;9.00;99.90;;;;;;4944960;28;19932;-57
2023/12/25 08:25:03;;;;;;;;;;;9.00;99.90;;;;;;4945689;28;19918;-58
2023/12/25 08:27:29;;;;;;;;;;;9.00;99.90;;;;;;4944945;28;19937;-57
2023/12/25 08:29:55;;;;;;;;;;;8.90;99.90;;;;;;4946997;28;19933;-58
2023/12/25 08:32:20;;;;;;;;;;;8.90;99.90;;;;;;4941544;28;19934;-58
2023/12/25 08:34:46;;;;;;;;;;;8.90;99.90;;;;;;4937355;28;19974;-57
2023/12/25 08:37:11;;;;;;;;;;;8.90;99.90;;;;;;4950977;28;19970;-57
2023/12/25 08:39:37;;;;;;;;;;;8.80;99.90;;;;;;4949523;28;20414;-58
2023/12/25 08:42:03;;;;;;;;;;;8.80;99.90;;;;;;4945236;28;20005;-58
2023/12/25 08:44:29;;;;;;;;;;;8.80;99.90;;;;;;4944608;28;19944;-58
2023/12/25 08:46:54;;;;;;;;;;;8.70;99.90;;;;;;4947591;28;19937;-56
2023/12/25 08:49:20;;;;;;;;;;;8.70;99.90;;;;;;4945063;28;20296;-57
2023/12/25 08:51:45;;;;;;;;;;;8.70;99.90;;;;;;4947754;28;19926;-57
2023/12/25 08:54:11;;;;;;;;;;;8.70;99.90;;;;;;4945100;28;19929;-58
2023/12/25 08:56:37;;;;;;;;;;;8.70;99.90;;;;;;4933178;28;19926;-58
2023/12/25 08:59:05;;;;;;;;;;;8.70;99.90;;;;;;4955365;28;20004;-57
2023/12/25 09:01:31;;;;;;;;;;;8.70;99.90;;;;;;4957637;28;19922;-58
2023/12/25 09:03:57;;;;;;;;;;;8.60;99.90;;;;;;4954958;28;20376;-57
2023/12/25 09:06:24;;;;;;;;;;;8.60;99.90;;;;;;4956958;28;19925;-58
2023/12/25 09:08:50;;;;;;;;;;;8.60;99.90;;;;;;4952811;28;20058;-57
2023/12/25 09:11:16;;;;;;;;;;;8.60;99.90;;;;;;4957163;28;19923;-58
2023/12/25 09:13:42;;;;;;;;;;;8.60;99.90;;;;;;4957669;28;19922;-57
2023/12/25 09:16:08;;;;;;;;;;;8.60;99.90;;;;;;4957137;28;20257;-57
2023/12/25 09:18:34;;;;;;;;;;;8.60;99.90;;;;;;4936351;28;19922;-58
2023/12/25 09:20:59;;;;;;;;;;;8.60;99.90;;;;;;4950135;28;20152;-58
2023/12/25 09:23:25;;;;;;;;;;;8.60;99.90;;;;;;4950620;28;19929;-58
2023/12/25 09:25:50;;;;;;;;;;;8.60;99.90;;;;;;4951857;28;20471;-58
2023/12/25 09:28:16;;;;;;;;;;;8.60;99.90;;;;;;4950250;28;19949;-58
2023/12/25 09:30:42;;;;;;;;;;;8.60;99.90;;;;;;4943767;28;19930;-56
2023/12/25 09:33:08;;;;;;;;;;;8.60;99.90;;;;;;4917384;28;19925;-57
2023/12/25 09:35:34;;;;;;;;;;;8.70;99.90;;;;;;4915059;28;19926;-57
2023/12/25 09:37:59;;;;;;;;;;;8.70;99.90;;;;;;4936769;28;20117;-58
2023/12/25 09:40:25;;;;;;;;;;;8.70;99.90;;;;;;4938355;28;20346;-56
2023/12/25 09:42:50;;;;;;;;;;;8.70;99.90;;;;;;4941033;28;20012;-56
2023/12/25 09:45:17;;;;;;;;;;;8.70;99.90;;;;;;4946584;28;19969;-58
2023/12/25 09:47:43;;;;;;;;;;;8.70;99.90;;;;;;4946497;28;19933;-59
2023/12/25 09:50:10;;;;;;;;;;;8.70;99.90;;;;;;4947375;28;20020;-56
2023/12/25 09:52:35;;;;;;;;;;;8.70;99.90;;;;;;4937000;28;19926;-58
2023/12/25 09:55:01;;;;;;;;;;;8.70;99.90;;;;;;4920388;28;20627;-57
2023/12/25 09:57:29;;;;;;;;;;;8.70;99.90;;;;;;4909446;28;20592;-57
2023/12/25 09:59:55;;;;;;;;;;;8.80;99.90;;;;;;4930026;28;20529;-58
2023/12/25 10:02:21;;;;;;;;;;;8.70;99.90;;;;;;4911899;28;20337;-58
2023/12/25 10:04:48;;;;;;;;;;;8.70;99.90;;;;;;4916743;28;19934;-58
2023/12/25 10:07:13;;;;;;;;;;;8.80;99.90;;;;;;4936489;28;19923;-54
2023/12/25 10:09:39;;;;;;;;;;;8.80;99.90;;;;;;4919618;28;20635;-56
2023/12/25 10:12:05;;;;;;;;;;;8.80;99.90;;;;;;4923438;28;20976;-58
2023/12/25 10:14:31;;;;;;;;;;;8.70;99.90;;;;;;4938650;28;20599;-57
2023/12/25 10:16:57;;;;;;;;;;;8.80;99.90;;;;;;4940595;28;19926;-58
2023/12/25 10:19:23;;;;;;;;;;;8.80;99.90;;;;;;4943344;28;20390;-57
2023/12/25 10:21:50;;;;;;;;;;;8.80;99.90;;;;;;4935709;28;19933;-56
2023/12/25 10:24:16;;;;;;;;;;;8.90;99.90;;;;;;4919258;28;20042;-57
2023/12/25 10:26:45;;;;;;;;;;;8.90;99.90;;;;;;4944510;28;20070;-58
2023/12/25 10:29:10;;;;;;;;;;;9.00;99.90;;;;;;4937430;28;19929;-57
2023/12/25 10:31:38;;;;;;;;;;;9.00;99.90;;;;;;4934986;28;19933;-57
2023/12/25 10:34:03;;;;;;;;;;;9.00;99.90;;;;;;4921260;28;20369;-58
2023/12/25 10:36:29;;;;;;;;;;;9.00;99.90;;;;;;4939157;28;20556;-58
2023/12/25 10:38:54;;;;;;;;;;;9.10;99.90;;;;;;4932957;28;23951;-58
2023/12/25 10:41:25;;;;;;;;;;;9.00;99.90;;;;;;4941644;28;19993;-57
2023/12/25 10:43:55;;;;;;;;;;;9.00;99.90;;;;;;4945499;28;19925;-57
2023/12/25 10:46:42;;;;;;;;;;;9.00;99.90;;;;;;4940995;28;19929;-56
2023/12/25 10:49:08;;;;;;;;;;;9.10;99.90;;;;;;4926239;28;20435;-57
2023/12/25 10:51:36;;;;;;;;;;;9.10;99.90;;;;;;4925076;28;19925;-58
2023/12/25 10:54:03;;;;;;;;;;;9.10;99.90;;;;;;4940284;28;19987;-58
2023/12/25 10:56:32;;;;;;;;;;;9.10;99.90;;;;;;4930242;28;20013;-57
2023/12/25 10:59:05;;;;;;;;;;;9.10;99.90;;;;;;4948298;28;19926;-57
2023/12/25 11:01:32;;;;;;;;;;;9.20;99.90;;;;;;4926459;28;19958;-58
2023/12/25 11:03:57;;;;;;;;;;;9.20;99.90;;;;;;4904923;28;20388;-57
2023/12/25 11:06:23;;;;;;;;;;;9.30;99.90;;;;;;4928005;28;19922;-59
2023/12/25 11:08:49;;;;;;;;;;;9.30;99.90;;;;;;4907233;28;20032;-58
2023/12/25 11:11:15;;;;;;;;;;;9.40;99.90;;;;;;4945630;28;20389;-58
2023/12/25 11:13:41;;;;;;;;;;;9.50;99.90;;;;;;4927463;28;19921;-58
2023/12/25 11:16:08;;;;;;;;;;;9.50;99.90;;;;;;4945430;28;20373;-58
2023/12/25 11:18:37;;;;;;;;;;;9.50;99.90;;;;;;4945927;28;19926;-57
2023/12/25 11:21:04;;;;;;;;;;;9.60;99.90;;;;;;4946722;28;20397;-58
2023/12/25 11:23:42;;;;;;;;;;;9.60;99.90;;;;;;4941864;28;20037;-56
2023/12/25 11:26:10;;;;;;;;;;;9.60;99.90;;;;;;4942864;28;19930;-58
2023/12/25 11:28:38;;;;;;;;;;;9.60;99.90;;;;;;4949392;28;19918;-56
2023/12/25 11:31:04;;;;;;;;;;;9.60;99.90;;;;;;4944175;28;19929;-57
2023/12/25 11:33:30;;;;;;;;;;;9.60;99.90;;;;;;4941928;28;19925;-58
2023/12/25 11:35:56;;;;;;;;;;;9.70;99.90;;;;;;4944086;28;19976;-58
2023/12/25 11:38:24;;;;;;;;;;;9.60;99.90;;;;;;4946002;28;19926;-58
2023/12/25 11:40:50;;;;;;;;;;;9.60;99.90;;;;;;4944896;28;19982;-57
2023/12/25 11:43:18;;;;;;;;;;;9.70;99.90;;;;;;4940319;28;19933;-58
2023/12/25 11:45:45;;;;;;;;;;;9.60;99.90;;;;;;4920986;28;19926;-56
2023/12/25 11:48:14;;;;;;;;;;;9.60;99.90;;;;;;4939720;28;19922;-57
2023/12/25 11:50:45;;;;;;;;;;;9.60;99.90;;;;;;4940462;28;19929;-58
2023/12/25 11:53:30;;;;;;;;;;;9.60;99.90;;;;;;4943999;28;20372;-58
2023/12/25 11:55:56;;;;;;;;;;;9.60;99.90;;;;;;4928627;28;19926;-56
2023/12/25 11:58:22;;;;;;;;;;;9.60;99.90;;;;;;4941315;28;19976;-57
2023/12/25 12:00:48;;;;;;;;;;;9.50;99.90;;;;;;4940606;28;20412;-58
2023/12/25 12:03:14;;;;;;;;;;;9.50;99.90;;;;;;4920836;28;19932;-57
2023/12/25 12:05:41;;;;;;;;;;;9.60;99.90;;;;;;4912994;28;20344;-56
2023/12/25 12:08:07;;;;;;;;;;;9.60;99.90;;;;;;4931347;28;19929;-57
2023/12/25 12:10:33;;;;;;;;;;;9.60;99.90;;;;;;4938764;28;19937;-57
2023/12/25 12:12:59;;;;;;;;;;;9.60;99.90;;;;;;4942182;28;19926;-57
2023/12/25 12:15:24;;;;;;;;;;;9.60;99.90;;;;;;4938546;28;19949;-58
2023/12/25 12:17:50;;;;;;;;;;;9.60;99.90;;;;;;4935703;28;20020;-58
2023/12/25 12:20:16;;;;;;;;;;;9.60;99.90;;;;;;4942789;28;20224;-57
2023/12/25 12:22:41;;;;;;;;;;;9.60;99.90;;;;;;4938997;28;19929;-57
2023/12/25 12:25:28;;;;;;;;;;;9.70;99.90;;;;;;4922900;28;20304;-57
2023/12/25 12:27:56;;;;;;;;;;;9.70;99.90;;;;;;4939128;28;20403;-57
2023/12/25 12:30:22;;;;;;;;;;;9.70;99.90;;;;;;4928786;28;19926;-56
2023/12/25 12:32:50;;;;;;;;;;;9.70;99.90;;;;;;4928914;28;19926;-57
2023/12/25 12:35:16;;;;;;;;;;;9.70;99.90;;;;;;4927334;28;19972;-57
2023/12/25 12:37:42;;;;;;;;;;;9.70;99.90;;;;;;4930840;28;20056;-57
2023/12/25 12:40:08;;;;;;;;;;;9.70;99.90;;;;;;4941243;28;20017;-57
2023/12/25 12:42:34;;;;;;;;;;;9.70;99.90;;;;;;4944841;28;19969;-58
2023/12/25 12:45:03;;;;;;;;;;;9.80;99.90;;;;;;4945069;28;19952;-57
2023/12/25 12:47:29;;;;;;;;;;;9.70;99.90;;;;;;4948306;28;20313;-57
2023/12/25 12:49:55;;;;;;;;;;;9.80;99.90;;;;;;4944968;28;20414;-58
2023/12/25 12:52:21;;;;;;;;;;;9.70;99.90;;;;;;4942845;28;19925;-57
2023/12/25 12:54:46;;;;;;;;;;;9.80;99.90;;;;;;4950189;28;20056;-58
2023/12/25 12:57:12;;;;;;;;;;;9.80;99.90;;;;;;4929513;28;19945;-57
2023/12/25 12:59:39;;;;;;;;;;;9.80;99.90;;;;;;4933623;28;20348;-58
2023/12/25 13:02:04;;;;;;;;;;;9.80;99.90;;;;;;4939218;28;20000;-57
2023/12/25 13:04:30;;;;;;;;;;;9.80;99.90;;;;;;4936879;28;19926;-58
2023/12/25 13:06:55;;;;;;;;;;;9.80;99.90;;;;;;4934527;28;20428;-57
2023/12/25 13:09:21;;;;;;;;;;;9.80;99.90;;;;;;4938359;28;19926;-57
2023/12/25 13:11:48;;;;;;;;;;;9.80;99.90;;;;;;4943017;28;20009;-57
2023/12/25 13:14:13;;;;;;;;;;;9.70;99.90;;;;;;4948265;28;20002;-57
2023/12/25 13:16:39;;;;;;;;;;;9.70;99.90;;;;;;4933439;28;20826;-58
2023/12/25 13:19:05;;;;;;;;;;;9.70;99.90;;;;;;4930291;28;19922;-56
2023/12/25 13:21:30;;;;;;;;;;;9.70;99.90;;;;;;4926653;28;20354;-58
2023/12/25 13:23:56;;;;;;;;;;;9.70;99.90;;;;;;4945332;28;19926;-58
2023/12/25 13:26:22;;;;;;;;;;;9.60;99.90;;;;;;4948237;28;20134;-57
2023/12/25 13:28:47;;;;;;;;;;;9.60;99.90;;;;;;4941636;28;20468;-57
2023/12/25 13:31:13;;;;;;;;;;;9.60;99.90;;;;;;4940935;28;24774;-58
2023/12/25 13:33:42;;;;;;;;;;;9.70;99.90;;;;;;4940404;28;19933;-58
2023/12/25 13:36:09;;;;;;;;;;;9.60;99.90;;;;;;4941846;28;20459;-58
2023/12/25 13:38:35;;;;;;;;;;;9.60;99.90;;;;;;4925273;28;19922;-56
2023/12/25 13:41:00;;;;;;;;;;;9.60;99.90;;;;;;4923823;28;19926;-57
2023/12/25 13:43:26;;;;;;;;;;;9.60;99.90;;;;;;4916811;28;19926;-58
2023/12/25 13:45:52;;;;;;;;;;;9.50;99.90;;;;;;4937033;28;20021;-58
2023/12/25 13:48:17;;;;;;;;;;;9.50;99.90;;;;;;4933976;28;20455;-57
2023/12/25 13:50:43;;;;;;;;;;;9.50;99.90;;;;;;4926482;28;23556;-58
2023/12/25 13:53:08;;;;;;;;;;;9.50;99.90;;;;;;4940317;28;19929;-58
2023/12/25 13:55:34;;;;;;;;;;;9.50;99.90;;;;;;4931357;28;20155;-58
2023/12/25 13:58:00;;;;;;;;;;;9.50;99.90;;;;;;4922300;28;19922;-57
2023/12/25 14:00:25;;;;;;;;;;;9.50;99.90;;;;;;4927272;28;19934;-58
2023/12/25 14:02:51;;;;;;;;;;;9.50;99.90;;;;;;4946157;28;19934;-58
2023/12/25 14:05:17;;;;;;;;;;;9.50;99.90;;;;;;4935496;28;19926;-58
2023/12/25 14:07:43;;;;;;;;;;;9.50;99.90;;;;;;4932275;28;20403;-57
2023/12/25 14:10:08;;;;;;;;;;;9.50;99.90;;;;;;4944642;28;19929;-57
2023/12/25 14:12:34;;;;;;;;;;;9.50;99.90;;;;;;4927695;28;20480;-58
2023/12/25 14:15:00;;;;;;;;;;;9.50;99.90;;;;;;4946954;28;19918;-58
2023/12/25 14:17:25;;;;;;;;;;;9.50;99.90;;;;;;4915435;28;19929;-58
2023/12/25 14:19:51;;;;;;;;;;;9.50;99.90;;;;;;4944572;28;19932;-58
2023/12/25 14:22:16;;;;;;;;;;;9.50;99.90;;;;;;4943026;28;20061;-58